createdAt,value
2019-03-04T00:01:01.236Z,3.33
2019-03-04T00:03:34.041Z,3.40
2019-03-04T00:06:05.687Z,3.57
2019-03-04T00:08:37.343Z,5.37
2019-03-04T00:11:09.098Z,3.93
2019-03-04T00:13:40.910Z,4.10
2019-03-04T00:16:12.810Z,3.60
2019-03-04T00:18:44.446Z,3.83
2019-03-04T00:21:16.009Z,4.43
2019-03-04T00:23:47.557Z,3.90
2019-03-04T00:26:19.141Z,5.42
2019-03-04T00:28:50.833Z,3.67
2019-03-04T00:31:22.415Z,4.80
2019-03-04T00:33:53.934Z,4.27
2019-03-04T00:36:25.534Z,5.17
2019-03-04T00:38:57.252Z,4.50
2019-03-04T00:41:28.778Z,4.10
2019-03-04T00:44:00.371Z,4.95
2019-03-04T00:46:31.943Z,3.90
2019-03-04T00:49:04.223Z,4.67
2019-03-04T00:51:35.822Z,3.53
2019-03-04T00:54:07.423Z,3.93
2019-03-04T00:56:39.083Z,4.03
2019-03-04T00:59:11.656Z,3.60
2019-03-04T01:01:43.299Z,4.15
2019-03-04T01:04:14.821Z,3.70
2019-03-04T01:06:46.623Z,3.50
2019-03-04T01:09:18.361Z,3.50
2019-03-04T01:11:49.947Z,3.23
2019-03-04T01:14:21.530Z,3.60
2019-03-04T01:16:53.049Z,3.05
2019-03-04T01:19:24.714Z,3.03
2019-03-04T01:21:56.296Z,3.90
2019-03-04T01:24:27.809Z,3.03
2019-03-04T01:26:59.422Z,3.80
2019-03-04T01:29:31.040Z,3.03
2019-03-04T01:32:02.661Z,3.37
2019-03-04T01:34:34.292Z,3.63
2019-03-04T01:37:06.161Z,3.37
2019-03-04T01:39:37.753Z,3.20
2019-03-04T01:42:09.260Z,2.73
2019-03-04T01:44:41.367Z,3.50
2019-03-04T01:47:12.891Z,3.57
2019-03-04T01:49:44.472Z,4.10
2019-03-04T01:52:16.081Z,3.83
2019-03-04T01:54:48.073Z,4.20
2019-03-04T01:57:19.851Z,3.40
2019-03-04T01:59:51.442Z,3.83
2019-03-04T02:02:23.181Z,3.83
2019-03-04T02:04:54.849Z,3.63
2019-03-04T02:07:27.437Z,3.03
2019-03-04T02:09:59.224Z,3.27
2019-03-04T02:12:30.830Z,3.57
2019-03-04T02:15:02.498Z,2.67
2019-03-04T02:17:34.399Z,3.73
2019-03-04T02:20:10.154Z,2.43
2019-03-04T02:22:42.240Z,2.80
2019-03-04T02:25:26.711Z,3.30
2019-03-04T02:27:58.323Z,2.70
2019-03-04T02:30:30.208Z,2.63
2019-03-04T02:33:01.733Z,2.53
2019-03-04T02:35:33.310Z,2.77
2019-03-04T02:38:04.856Z,2.70
2019-03-04T02:40:36.591Z,2.25
2019-03-04T02:43:08.131Z,2.50
2019-03-04T02:45:39.754Z,2.22
2019-03-04T02:48:11.344Z,2.53
2019-03-04T02:50:43.514Z,2.55
2019-03-04T02:53:15.043Z,2.13
2019-03-04T02:55:46.604Z,2.90
2019-03-04T02:58:18.201Z,2.90
2019-03-04T03:00:49.772Z,3.13
2019-03-04T03:03:21.442Z,2.20
2019-03-04T03:05:53.272Z,2.47
2019-03-04T03:08:24.914Z,2.50
2019-03-04T03:10:56.414Z,2.75
2019-03-04T03:13:27.989Z,2.10
2019-03-04T03:15:59.520Z,2.40
2019-03-04T03:18:31.111Z,2.43
2019-03-04T03:21:02.848Z,2.73
2019-03-04T03:23:34.437Z,3.20
2019-03-04T03:26:05.970Z,2.60
2019-03-04T03:28:37.487Z,2.70
2019-03-04T03:31:09.018Z,2.27
2019-03-04T03:33:40.682Z,2.93
2019-03-04T03:36:12.228Z,2.73
2019-03-04T03:38:43.757Z,3.10
2019-03-04T03:41:15.489Z,1.93
2019-03-04T03:43:47.157Z,2.50
2019-03-04T03:46:18.689Z,2.20
2019-03-04T03:48:50.289Z,2.67
2019-03-04T03:51:21.807Z,3.50
2019-03-04T03:53:53.398Z,2.27
2019-03-04T03:56:25.050Z,2.40
2019-03-04T03:58:56.720Z,2.70
2019-03-04T04:01:28.328Z,2.20
2019-03-04T04:03:59.863Z,2.03
2019-03-04T04:06:31.466Z,3.53
2019-03-04T04:09:03.080Z,2.70
2019-03-04T04:11:36.087Z,2.43
2019-03-04T04:14:08.671Z,2.63
2019-03-04T04:16:40.197Z,2.07
2019-03-04T04:19:11.731Z,2.30
2019-03-04T04:21:43.289Z,2.83
2019-03-04T04:24:14.887Z,2.53
2019-03-04T04:26:46.459Z,3.07
2019-03-04T04:29:17.986Z,2.30
2019-03-04T04:31:49.568Z,2.73
2019-03-04T04:34:21.146Z,2.90
2019-03-04T04:36:52.663Z,2.37
2019-03-04T04:39:24.252Z,1.73
2019-03-04T04:41:55.810Z,2.43
2019-03-04T04:44:27.499Z,2.70
2019-03-04T04:46:59.076Z,2.60
2019-03-04T04:49:30.660Z,2.10
2019-03-04T04:52:02.192Z,2.73
2019-03-04T04:54:33.716Z,2.20
2019-03-04T04:57:05.293Z,3.10
2019-03-04T04:59:37.294Z,2.20
2019-03-04T05:02:08.940Z,2.07
2019-03-04T05:04:40.510Z,2.30
2019-03-04T05:07:12.180Z,2.40
2019-03-04T05:09:43.872Z,2.40
2019-03-04T05:12:15.935Z,3.47
2019-03-04T05:14:48.308Z,3.27
2019-03-04T05:17:20.108Z,2.83
2019-03-04T05:19:51.915Z,2.33
2019-03-04T05:22:23.555Z,2.77
2019-03-04T05:24:55.310Z,2.27
2019-03-04T05:27:26.892Z,2.43
2019-03-04T05:29:58.585Z,2.43
2019-03-04T05:32:30.414Z,2.87
2019-03-04T05:35:02.044Z,3.00
2019-03-04T05:37:33.653Z,2.83
2019-03-04T05:40:09.974Z,2.17
2019-03-04T05:42:41.876Z,3.30
2019-03-04T05:45:16.835Z,2.93
2019-03-04T05:47:48.413Z,2.93
2019-03-04T05:50:24.323Z,3.00
2019-03-04T05:52:55.896Z,2.70
2019-03-04T05:55:27.421Z,3.30
2019-03-04T05:57:58.956Z,3.13
2019-03-04T06:00:41.350Z,3.10
2019-03-04T06:03:17.862Z,3.30
2019-03-04T06:05:49.860Z,2.93
2019-03-04T06:08:21.837Z,3.65
2019-03-04T06:10:53.474Z,4.60
2019-03-04T06:13:26.243Z,5.10
2019-03-04T06:15:58.089Z,4.20
2019-03-04T06:18:29.879Z,4.30
2019-03-04T06:21:01.599Z,3.25
2019-03-04T06:23:33.329Z,3.30
2019-03-04T06:26:05.186Z,3.07
2019-03-04T06:28:36.970Z,2.93
2019-03-04T06:31:08.946Z,3.47
2019-03-04T06:33:40.771Z,3.37
2019-03-04T06:36:12.468Z,3.00
2019-03-04T06:38:44.439Z,3.77
2019-03-04T06:41:16.252Z,3.55
2019-03-04T06:43:49.021Z,3.85
2019-03-04T06:46:20.795Z,3.22
2019-03-04T06:48:52.716Z,3.83
2019-03-04T06:51:34.921Z,2.83
2019-03-04T06:54:15.163Z,3.55
2019-03-04T06:57:00.949Z,3.40
2019-03-04T06:59:49.626Z,3.20
2019-03-04T07:02:31.951Z,3.55
2019-03-04T07:05:23.762Z,3.30
2019-03-04T07:07:55.689Z,2.77
2019-03-04T07:10:28.066Z,3.67
2019-03-04T07:12:59.706Z,3.08
2019-03-04T07:15:31.260Z,4.00
2019-03-04T07:18:02.907Z,4.75
2019-03-04T07:20:34.426Z,4.67
2019-03-04T07:23:06.074Z,5.25
2019-03-04T07:25:38.200Z,4.42
2019-03-04T07:28:09.782Z,4.45
2019-03-04T07:30:41.375Z,4.03
2019-03-04T07:33:12.922Z,3.50
2019-03-04T07:35:44.496Z,3.20
2019-03-04T07:38:21.754Z,3.67
2019-03-04T07:40:53.807Z,4.10
2019-03-04T07:43:25.477Z,3.95
2019-03-04T07:45:56.997Z,4.10
2019-03-04T07:48:28.513Z,3.22
2019-03-04T07:51:12.817Z,3.72
2019-03-04T07:53:46.598Z,3.85
2019-03-04T07:56:17.892Z,3.95
2019-03-04T07:58:49.418Z,3.22
2019-03-04T08:01:20.966Z,4.40
2019-03-04T08:03:52.550Z,4.10
2019-03-04T08:06:24.986Z,4.40
2019-03-04T08:09:16.409Z,4.42
2019-03-04T08:12:32.534Z,4.28
2019-03-04T08:15:05.938Z,4.75
2019-03-04T08:17:37.550Z,5.17
2019-03-04T08:20:09.511Z,5.40
2019-03-04T08:22:41.120Z,4.47
2019-03-04T08:25:12.872Z,3.40
2019-03-04T08:27:44.470Z,4.70
2019-03-04T08:30:19.032Z,4.08
2019-03-04T08:32:50.620Z,2.80
2019-03-04T08:35:22.457Z,3.12
2019-03-04T08:37:54.052Z,3.60
2019-03-04T08:40:25.706Z,3.30
2019-03-04T08:42:57.368Z,3.15
2019-03-04T08:45:28.945Z,3.08
2019-03-04T08:48:01.014Z,3.10
2019-03-04T08:50:32.696Z,3.47
2019-03-04T08:53:04.296Z,4.12
2019-03-04T08:55:35.894Z,4.25
2019-03-04T08:58:07.498Z,4.67
2019-03-04T09:00:40.093Z,3.80
2019-03-04T09:03:11.662Z,3.80
2019-03-04T09:05:43.257Z,3.72
2019-03-04T09:08:14.856Z,4.03
2019-03-04T09:10:47.454Z,4.17
2019-03-04T09:13:19.048Z,4.30
2019-03-04T09:15:51.636Z,4.53
2019-03-04T09:18:25.783Z,6.15
2019-03-04T09:20:59.823Z,5.80
2019-03-04T09:23:31.558Z,5.80
2019-03-04T09:26:11.930Z,5.00
2019-03-04T09:28:43.602Z,4.05
2019-03-04T09:31:15.143Z,4.55
2019-03-04T09:33:46.789Z,4.17
2019-03-04T09:36:18.814Z,4.15
2019-03-04T09:38:50.473Z,3.52
2019-03-04T09:41:22.060Z,4.05
2019-03-04T09:43:53.666Z,5.87
2019-03-04T09:46:25.262Z,4.85
2019-03-04T09:48:56.910Z,3.87
2019-03-04T09:51:28.758Z,3.92
2019-03-04T09:54:00.317Z,3.80
2019-03-04T09:56:31.827Z,3.10
2019-03-04T09:59:03.399Z,3.40
2019-03-04T10:01:42.566Z,4.10
2019-03-04T10:04:52.813Z,5.28
2019-03-04T10:07:47.456Z,4.62
2019-03-04T10:10:47.969Z,3.60
2019-03-04T10:13:46.167Z,3.22
2019-03-04T10:16:25.746Z,4.17
2019-03-04T10:19:05.643Z,3.30
2019-03-04T10:22:19.105Z,5.58
2019-03-04T10:24:55.584Z,3.75
2019-03-04T10:27:40.441Z,3.55
2019-03-04T10:30:34.393Z,2.83
2019-03-04T10:33:48.392Z,2.60
2019-03-04T10:36:50.409Z,2.70
2019-03-04T10:39:43.230Z,2.80
2019-03-04T10:42:39.202Z,3.70
2019-03-04T10:45:30.803Z,4.80
2019-03-04T10:48:02.321Z,5.55
2019-03-04T10:50:33.833Z,4.25
2019-03-04T10:53:05.425Z,3.62
2019-03-04T10:55:42.086Z,4.65
2019-03-04T10:58:10.313Z,3.50
2019-03-04T11:00:42.917Z,3.67
2019-03-04T11:03:14.680Z,3.25
2019-03-04T11:05:46.402Z,3.30
2019-03-04T11:08:18.081Z,3.20
2019-03-04T11:10:49.690Z,3.55
2019-03-04T11:13:21.297Z,3.62
2019-03-04T11:15:52.964Z,4.17
2019-03-04T11:18:24.498Z,3.17
2019-03-04T11:20:56.086Z,2.70
2019-03-04T11:23:29.704Z,2.60
2019-03-04T11:26:01.209Z,2.72
2019-03-04T11:28:32.951Z,2.12
2019-03-04T11:31:04.547Z,2.67
2019-03-04T11:33:36.120Z,2.62
2019-03-04T11:36:07.642Z,3.42
2019-03-04T11:38:52.630Z,2.42
2019-03-04T11:41:24.743Z,4.05
2019-03-04T11:43:56.396Z,3.52
2019-03-04T11:46:27.970Z,2.70
2019-03-04T11:48:59.608Z,2.25
2019-03-04T11:51:31.126Z,2.50
2019-03-04T11:54:02.796Z,2.92
2019-03-04T11:56:34.446Z,3.15
2019-03-04T11:59:06.031Z,2.47
2019-03-04T12:01:39.638Z,2.85
2019-03-04T12:04:11.303Z,3.10
2019-03-04T12:06:43.313Z,2.50
2019-03-04T12:09:15.818Z,2.67
2019-03-04T12:11:47.391Z,3.17
2019-03-04T12:14:19.534Z,3.30
2019-03-04T12:16:51.094Z,3.37
2019-03-04T12:19:22.730Z,2.65
2019-03-04T12:21:54.320Z,2.50
2019-03-04T12:24:25.892Z,2.90
2019-03-04T12:26:57.565Z,2.35
2019-03-04T12:29:29.369Z,2.77
2019-03-04T12:32:02.570Z,2.62
2019-03-04T12:34:34.345Z,2.83
2019-03-04T12:37:05.862Z,2.45
2019-03-04T12:39:37.485Z,3.00
2019-03-04T12:42:09.175Z,3.12
2019-03-04T12:44:40.828Z,2.52
2019-03-04T12:47:12.645Z,2.80
2019-03-04T12:49:44.402Z,2.40
2019-03-04T12:52:17.276Z,2.33
2019-03-04T12:54:49.328Z,3.00
2019-03-04T12:57:20.906Z,2.17
2019-03-04T12:59:54.195Z,2.80
2019-03-04T13:02:25.835Z,2.80
2019-03-04T13:04:57.624Z,2.47
2019-03-04T13:07:29.292Z,2.90
2019-03-04T13:10:00.962Z,2.62
2019-03-04T13:12:32.600Z,3.50
2019-03-04T13:15:10.057Z,3.42
2019-03-04T13:17:41.714Z,3.20
2019-03-04T13:20:16.783Z,2.55
2019-03-04T13:22:48.311Z,3.02
2019-03-04T13:25:19.873Z,2.95
2019-03-04T13:27:51.478Z,2.30
2019-03-04T13:30:41.059Z,3.35
2019-03-04T13:33:12.573Z,2.92
2019-03-04T13:35:45.039Z,2.52
2019-03-04T13:38:16.565Z,3.00
2019-03-04T13:40:49.078Z,2.70
2019-03-04T13:43:20.648Z,2.77
2019-03-04T13:45:53.909Z,2.22
2019-03-04T13:48:25.638Z,2.45
2019-03-04T13:50:57.240Z,3.20
2019-03-04T13:53:28.855Z,2.90
2019-03-04T13:56:00.521Z,3.77
2019-03-04T13:58:33.143Z,3.17
2019-03-04T14:01:04.667Z,2.98
2019-03-04T14:03:36.199Z,2.75
2019-03-04T14:06:08.066Z,3.27
2019-03-04T14:08:39.636Z,3.45
2019-03-04T14:11:12.233Z,3.45
2019-03-04T14:13:43.882Z,2.95
2019-03-04T14:16:15.742Z,3.00
2019-03-04T14:18:47.344Z,2.92
2019-03-04T14:21:18.920Z,3.05
2019-03-04T14:23:50.478Z,2.87
2019-03-04T14:26:22.061Z,2.55
2019-03-04T14:28:53.980Z,3.02
2019-03-04T14:31:25.537Z,2.08
2019-03-04T14:33:57.052Z,2.80
2019-03-04T14:36:28.688Z,2.50
2019-03-04T14:39:00.322Z,2.65
2019-03-04T14:41:32.244Z,2.58
2019-03-04T14:44:03.837Z,2.22
2019-03-04T14:46:35.344Z,2.27
2019-03-04T14:49:06.878Z,2.17
2019-03-04T14:51:38.473Z,2.10
2019-03-04T14:54:10.024Z,2.30
2019-03-04T14:56:41.569Z,2.62
2019-03-04T14:59:14.969Z,2.75
2019-03-04T15:01:48.338Z,3.20
2019-03-04T15:04:19.871Z,3.42
2019-03-04T15:06:51.443Z,3.90
2019-03-04T15:09:23.083Z,2.00
2019-03-04T15:11:54.636Z,1.45
2019-03-04T15:14:26.139Z,1.80
2019-03-04T15:17:03.244Z,1.50
2019-03-04T15:19:30.928Z,2.17
2019-03-04T15:22:03.519Z,2.30
2019-03-04T15:24:35.083Z,2.22
2019-03-04T15:27:06.681Z,2.50
2019-03-04T15:29:38.206Z,2.37
2019-03-04T15:32:10.180Z,2.37
2019-03-04T15:34:41.706Z,2.10
2019-03-04T15:37:13.263Z,2.17
2019-03-04T15:39:44.831Z,2.00
2019-03-04T15:42:16.483Z,2.30
2019-03-04T15:44:48.103Z,2.62
2019-03-04T15:47:19.779Z,1.60
2019-03-04T15:49:51.533Z,3.00
2019-03-04T15:52:23.172Z,2.33
2019-03-04T15:54:54.703Z,2.10
2019-03-04T15:57:26.332Z,1.77
2019-03-04T15:59:57.872Z,1.82
2019-03-04T16:02:29.554Z,2.10
2019-03-04T16:05:01.244Z,2.50
2019-03-04T16:07:32.997Z,2.00
2019-03-04T16:10:08.375Z,1.98
2019-03-04T16:12:39.967Z,2.02
2019-03-04T16:15:23.427Z,2.02
2019-03-04T16:17:55.037Z,2.83
2019-03-04T16:20:26.547Z,2.50
2019-03-04T16:22:58.210Z,2.25
2019-03-04T16:25:29.822Z,1.60
2019-03-04T16:28:06.393Z,1.82
2019-03-04T16:30:38.569Z,1.47
2019-03-04T16:33:10.796Z,1.87
2019-03-04T16:35:42.316Z,1.50
2019-03-04T16:38:13.849Z,1.35
2019-03-04T16:40:45.386Z,1.52
2019-03-04T16:43:16.920Z,1.65
2019-03-04T16:45:49.266Z,1.22
2019-03-04T16:48:21.011Z,1.72
2019-03-04T16:50:54.262Z,1.60
2019-03-04T16:53:34.429Z,1.90
2019-03-04T16:56:07.453Z,1.55
2019-03-04T16:58:39.426Z,1.62
2019-03-04T17:01:13.331Z,1.70
2019-03-04T17:03:45.116Z,1.00
2019-03-04T17:06:17.425Z,1.75
2019-03-04T17:08:50.862Z,1.57
2019-03-04T17:11:22.545Z,2.15
2019-03-04T17:13:54.157Z,1.72
2019-03-04T17:16:25.814Z,1.67
2019-03-04T17:18:57.470Z,1.60
2019-03-04T17:21:29.154Z,1.75
2019-03-04T17:24:00.769Z,2.00
2019-03-04T17:26:33.364Z,2.08
2019-03-04T17:29:05.235Z,7.20
2019-03-04T17:31:36.830Z,11.28
2019-03-04T17:34:08.435Z,5.70
2019-03-04T17:36:40.119Z,7.50
2019-03-04T17:39:11.780Z,5.17
2019-03-04T17:41:45.088Z,4.22
2019-03-04T17:44:21.706Z,3.83
2019-03-04T17:46:53.385Z,2.80
2019-03-04T17:49:25.183Z,4.30
2019-03-04T17:51:56.815Z,4.05
2019-03-04T17:54:29.781Z,3.80
2019-03-04T17:57:01.370Z,2.22
2019-03-04T17:59:35.479Z,2.22
2019-03-04T18:02:07.468Z,2.72
2019-03-04T18:04:39.067Z,2.20
2019-03-04T18:07:10.598Z,3.12
2019-03-04T18:09:42.148Z,2.25
2019-03-04T18:12:13.755Z,2.58
2019-03-04T18:14:45.600Z,2.17
2019-03-04T18:17:17.297Z,1.50
2019-03-04T18:19:49.320Z,1.52
2019-03-04T18:22:20.774Z,2.67
2019-03-04T18:24:52.369Z,2.58
2019-03-04T18:27:24.201Z,2.10
2019-03-04T18:30:15.348Z,1.87
2019-03-04T18:33:20.456Z,2.50
2019-03-04T18:36:17.792Z,2.00
2019-03-04T18:39:12.242Z,2.42
2019-03-04T18:42:16.207Z,1.55
2019-03-04T18:45:13.539Z,2.08
2019-03-04T18:48:18.968Z,2.30
2019-03-04T18:50:50.635Z,1.92
2019-03-04T18:53:22.281Z,2.50
2019-03-04T18:55:54.109Z,2.10
2019-03-04T18:58:25.794Z,2.05
2019-03-04T19:00:57.783Z,2.40
2019-03-04T19:03:29.690Z,1.67
2019-03-04T19:06:01.516Z,2.17
2019-03-04T19:08:33.676Z,2.62
2019-03-04T19:11:05.260Z,1.25
2019-03-04T19:13:37.259Z,1.70
2019-03-04T19:16:09.013Z,1.30
2019-03-04T19:18:41.378Z,1.55
2019-03-04T19:21:13.185Z,1.00
2019-03-04T19:23:44.941Z,1.15
2019-03-04T19:26:17.017Z,1.20
2019-03-04T19:28:48.688Z,0.82
2019-03-04T19:31:20.257Z,0.93
2019-03-04T19:33:52.025Z,1.50
2019-03-04T19:36:23.795Z,1.50
2019-03-04T19:38:57.136Z,1.02
2019-03-04T19:41:30.572Z,1.10
2019-03-04T19:44:02.516Z,1.12
2019-03-04T19:46:35.642Z,1.00
2019-03-04T19:49:08.094Z,1.20
2019-03-04T19:51:39.953Z,1.40
2019-03-04T19:54:11.657Z,1.37
2019-03-04T19:56:43.265Z,1.30
2019-03-04T19:59:14.893Z,1.57
2019-03-04T20:01:46.795Z,1.50
2019-03-04T20:04:18.539Z,1.77
2019-03-04T20:06:50.208Z,1.60
2019-03-04T20:09:21.907Z,1.63
2019-03-04T20:11:53.689Z,1.20
2019-03-04T20:14:25.451Z,1.00
2019-03-04T20:16:57.048Z,1.00
2019-03-04T20:19:28.625Z,1.13
2019-03-04T20:22:00.273Z,0.77
2019-03-04T20:24:32.021Z,0.90
2019-03-04T20:27:03.739Z,0.77
2019-03-04T20:29:35.254Z,0.90
2019-03-04T20:32:06.978Z,0.93
2019-03-04T20:34:40.008Z,0.93
2019-03-04T20:37:12.302Z,1.10
2019-03-04T20:39:44.690Z,1.33
2019-03-04T20:42:16.364Z,1.37
2019-03-04T20:44:48.286Z,1.37
2019-03-04T20:47:21.946Z,1.40
2019-03-04T20:49:54.973Z,1.40
2019-03-04T20:52:26.451Z,1.60
2019-03-04T20:54:58.112Z,2.07
2019-03-04T20:57:29.720Z,1.30
2019-03-04T21:00:01.482Z,1.73
2019-03-04T21:02:34.725Z,1.80
2019-03-04T21:05:09.952Z,1.90
2019-03-04T21:07:41.664Z,1.20
2019-03-04T21:10:14.072Z,1.67
2019-03-04T21:12:47.575Z,1.70
2019-03-04T21:15:20.014Z,1.33
2019-03-04T21:17:52.367Z,1.80
2019-03-04T21:20:25.781Z,1.30
2019-03-04T21:22:57.368Z,1.70
2019-03-04T21:25:43.918Z,1.57
2019-03-04T21:28:38.222Z,2.10
2019-03-04T21:31:31.983Z,2.00
2019-03-04T21:34:35.520Z,3.20
2019-03-04T21:37:17.759Z,2.10
2019-03-04T21:39:57.234Z,2.00
2019-03-04T21:42:39.629Z,1.80
2019-03-04T21:45:47.515Z,1.80
2019-03-04T21:48:54.027Z,1.50
2019-03-04T21:51:39.181Z,2.10
2019-03-04T21:54:12.341Z,1.87
2019-03-04T21:57:03.646Z,1.83
2019-03-04T21:59:35.229Z,1.60
2019-03-04T22:02:32.804Z,1.80
2019-03-04T22:05:12.361Z,1.70
2019-03-04T22:07:45.133Z,1.30
2019-03-04T22:10:17.231Z,1.80
2019-03-04T22:12:48.917Z,1.97
2019-03-04T22:15:20.492Z,1.70
2019-03-04T22:17:52.299Z,1.50
2019-03-04T22:20:24.010Z,1.47
2019-03-04T22:22:57.573Z,1.63
2019-03-04T22:25:29.301Z,1.97
2019-03-04T22:28:00.818Z,1.90
2019-03-04T22:30:34.112Z,2.00
2019-03-04T22:33:05.813Z,2.20
2019-03-04T22:35:37.553Z,2.13
2019-03-04T22:38:09.612Z,1.70
2019-03-04T22:40:41.661Z,2.03
2019-03-04T22:43:13.230Z,2.23
2019-03-04T22:45:44.818Z,2.13
2019-03-04T22:48:16.406Z,2.17
2019-03-04T22:50:48.000Z,2.00
2019-03-04T22:53:19.605Z,1.87
2019-03-04T22:55:51.168Z,2.07
2019-03-04T22:58:28.527Z,1.70
2019-03-04T23:01:01.125Z,1.83
2019-03-04T23:03:37.794Z,1.80
2019-03-04T23:06:14.253Z,1.90
2019-03-04T23:08:45.839Z,1.90
2019-03-04T23:11:18.202Z,1.90
2019-03-04T23:14:07.879Z,1.80
2019-03-04T23:16:39.441Z,2.07
2019-03-04T23:19:11.119Z,1.67
2019-03-04T23:22:55.723Z,1.83
2019-03-04T23:25:43.015Z,1.80
2019-03-04T23:28:14.673Z,2.50
2019-03-04T23:30:46.329Z,1.93
2019-03-04T23:33:18.014Z,1.97
2019-03-04T23:35:49.605Z,5.10
2019-03-04T23:38:21.558Z,2.40
2019-03-04T23:41:11.424Z,2.30
2019-03-04T23:43:43.084Z,3.00
2019-03-04T23:46:14.756Z,1.80
2019-03-04T23:48:46.302Z,2.90
2019-03-04T23:51:17.953Z,1.90
2019-03-04T23:53:49.990Z,1.80
2019-03-04T23:56:21.628Z,2.33
2019-03-04T23:58:53.173Z,2.10
